Αναφορές Αεροδρομίων

 

KSJC - San Jose, California, USA
Distance from station: ΒΑ 14km
Ενημερώθηκε: 06/02/2023 01:53
Σχεδόν νεφελώδης
Σχεδόν νεφελώδης
 Ανεμος από ΒΔ
Ανεμος: ΒΔ 19 km/h
Θερμοκρασία: 12°C
Σημείο Δρόσου: 7°C
Υγρασία: 72%
Βαρόμετρο: 1024.4 hPa
Clouds: Σχεδόν νεφελώδης
Visibility: 16 km
Cloud details: Few Clouds 0 m
Μερικώς νεφελώδης 853 m
Σχεδόν νεφελώδης 1128 m
2023/02/05 23:53 KSJC 052353Z 31010KT 10SM FEW000 SCT028 BKN037 12/07 A3025 RMK AO2 PK WND 32032/2307 RAB10E27 SLP244 RA FEW000 P0007 60016 T01170067 10139 20094 53003
KNUQ - Moffett Nas/Mtn, California, USA
Distance from station: Β 14km
Ενημερώθηκε: 06/02/2023 02:15
Σχεδόν νεφελώδης
Σχεδόν νεφελώδης
 Ανεμος από ΔΒΔ
Ανεμος: ΔΒΔ 11 km/h
Θερμοκρασία: 11°C
Σημείο Δρόσου: 7°C
Υγρασία: 77%
Βαρόμετρο: 1025.1 hPa
Clouds: Σχεδόν νεφελώδης
Visibility: 16 km
Cloud details: Few Clouds 914 m
Μερικώς νεφελώδης 2134 m
Σχεδόν νεφελώδης 2438 m
2023/02/06 00:15 KNUQ 060015Z AUTO 29006KT 10SM FEW030 SCT070 BKN080 11/07 A3027 RMK AO2
 
KPAO - Palo Alto, California, USA
Distance from station: ΒΒΔ 23km
Ενημερώθηκε: 06/02/2023 00:47
NOT Current
Σχεδόν νεφελώδης
Σχεδόν νεφελώδης
 Ανεμος από ΔΒΔ
Ανεμος: ΔΒΔ 28 km/h, Ριπή: 52 km/h
Θερμοκρασία: 11°C
Σημείο Δρόσου: 6°C
Υγρασία: 72%
Βαρόμετρο: 1024.7 hPa
Clouds: Σχεδόν νεφελώδης
Visibility: 16 km
Cloud details: Μερικώς νεφελώδης 914 m
Σχεδόν νεφελώδης 1219 m
2023/02/05 22:47 KPAO 052247Z 29015G28KT 10SM SCT030 BKN040 11/06 A3026 VCSH
KRHV - San Jose/Reid, California, USA
Distance from station: ΑΒΑ 19km
Ενημερώθηκε: 06/02/2023 01:47
Σχεδόν νεφελώδης
Σχεδόν νεφελώδης
 Ανεμος από ΒΒΔ
Ανεμος: ΒΒΔ 9 km/h
Θερμοκρασία: 11°C
Σημείο Δρόσου: 7°C
Υγρασία: 77%
Βαρόμετρο: 1024.7 hPa
Clouds: Σχεδόν νεφελώδης
Visibility: 16 km
Cloud details: Μερικώς νεφελώδης 762 m
Σχεδόν νεφελώδης 1372 m
Σχεδόν νεφελώδης 2438 m
2023/02/05 23:47 KRHV 052347Z 33005KT 10SM SCT025 BKN045 BKN080 11/07 A3026
 
KOAK - Oakland, California, USA
Distance from station: ΒΒΔ 50km
Ενημερώθηκε: 06/02/2023 01:53
Μερικώς νεφελώδης
Μερικώς νεφελώδης
 Ανεμος από ΔΒΔ
Ανεμος: ΔΒΔ 39 km/h, Ριπή: 61 km/h
Θερμοκρασία: 12°C
Σημείο Δρόσου: 6°C
Υγρασία: 67%
Βαρόμετρο: 1024.7 hPa
Clouds: Μερικώς νεφελώδης
Visibility: 16 km
Cloud details: Few Clouds 457 m
Few Clouds 914 m
Μερικώς νεφελώδης 1463 m
2023/02/05 23:53 KOAK 052353Z 30021G33KT 10SM FEW015 FEW030 SCT048 12/06 A3026 RMK AO2 PK WND 30033/2351 SLP246 60000 T01170061 10133 20106 53002
KSQL - San Carlos Airpo, California, USA
Distance from station: ΒΔ 34km
Ενημερώθηκε: 06/02/2023 01:47
Σχεδόν νεφελώδης
Σχεδόν νεφελώδης
 Ανεμος από Δ
Ανεμος: Δ 28 km/h, Ριπή: 50 km/h
Θερμοκρασία: 12°C
Σημείο Δρόσου: 7°C
Υγρασία: 72%
Βαρόμετρο: 1025.1 hPa
Clouds: Σχεδόν νεφελώδης
Visibility: 16 km
Cloud details: Μερικώς νεφελώδης 1067 m
Σχεδόν νεφελώδης 1219 m
2023/02/05 23:47 KSQL 052347Z 27015G27KT 10SM SCT035 BKN040 12/07 A3027
 
KSFO - San Francisco, California, USA
Distance from station: ΒΔ 49km
Ενημερώθηκε: 06/02/2023 01:56
Σχεδόν νεφελώδης
Σχεδόν νεφελώδης
 Ανεμος από Δ
Ανεμος: Δ 35 km/h, Ριπή: 54 km/h
Θερμοκρασία: 12°C
Σημείο Δρόσου: 6°C
Υγρασία: 67%
Βαρόμετρο: 1024.4 hPa
Clouds: Σχεδόν νεφελώδης
Visibility: 16 km
Cloud details: Few Clouds 732 m
Μερικώς νεφελώδης 1219 m
Σχεδόν νεφελώδης 3353 m
Σχεδόν νεφελώδης 4572 m
2023/02/05 23:56 KSFO 052356Z 28019G29KT 10SM FEW024 SCT040 BKN110 BKN150 12/06 A3025 RMK AO2 PK WND 29032/2339 RAE05 SLP244 P0000 60000 T01220061 10139 20111 53006
KE16 - San Martin, California, USA
Distance from station: ΑΝΑ 43km
Ενημερώθηκε: 06/02/2023 02:15
Σχεδόν νεφελώδης
Σχεδόν νεφελώδης
 Ανεμος από ΒΔ
Ανεμος: ΒΔ 20 km/h, Ριπή: 31 km/h
Θερμοκρασία: 10°C
Wind Chill: 7°C
Σημείο Δρόσου: 5°C
Υγρασία: 71%
Βαρόμετρο: 1025.1 hPa
Clouds: Σχεδόν νεφελώδης
Visibility: 16 km
Cloud details: Σχεδόν νεφελώδης 1311 m
Σχεδόν νεφελώδης 1524 m
2023/02/06 00:15 KE16 060015Z AUTO 32011G17KT 10SM BKN043 BKN050 10/05 A3027 RMK AO2 PWINO PNO
 
KWVI - Watsonville, California, USA
Distance from station: ΝΝΑ 44km
Ενημερώθηκε: 06/02/2023 01:53
Few Clouds
Few Clouds
 Ανεμος από ΔΒΔ
Ανεμος: ΔΒΔ 13 km/h
Θερμοκρασία: 12°C
Σημείο Δρόσου: 7°C
Υγρασία: 72%
Βαρόμετρο: 1024.7 hPa
Clouds: Few Clouds
Visibility: 16 km
Cloud details: Few Clouds 1006 m
2023/02/05 23:53 KWVI 052353Z AUTO 30007KT 10SM FEW033 12/07 A3026 RMK AO2 SLP245 60015 T01220067 10139 20094 55000
KHAF - Half Moon Bay, California, USA
Distance from station: ΔΒΔ 50km
Ενημερώθηκε: 06/02/2023 02:15
Haze, Μερικώς νεφελώδης
Haze, Μερικώς νεφελώδης
 Ανεμος από ΒΔ
Ανεμος: ΒΔ 33 km/h
Θερμοκρασία: 11°C
Σημείο Δρόσου: 7°C
Υγρασία: 77%
Βαρόμετρο: 1025.1 hPa
Περίληψη: Haze
Clouds: Μερικώς νεφελώδης
Visibility: 10 km
Cloud details: Μερικώς νεφελώδης 671 m
Μερικώς νεφελώδης 975 m
Μερικώς νεφελώδης 1341 m
2023/02/06 00:15 KHAF 060015Z AUTO 32018KT 6SM HZ SCT022 SCT032 SCT044 11/07 A3027 RMK AO2
 
KHWD - Hayward, California, USA
Distance from station: Β 44km
Ενημερώθηκε: 06/02/2023 01:54
Μερικώς νεφελώδης
Μερικώς νεφελώδης
 Ανεμος από ΔΒΔ
Ανεμος: ΔΒΔ 15 km/h
Θερμοκρασία: 12°C
Σημείο Δρόσου: 7°C
Υγρασία: 72%
Βαρόμετρο: 1024.4 hPa
Clouds: Μερικώς νεφελώδης
Visibility: 16 km
Cloud details: Μερικώς νεφελώδης 762 m
2023/02/05 23:54 KHWD 052354Z 29008KT 10SM SCT025 12/07 A3025 RMK AO2 PK WND 29027/2306 RAB12E21 SLP254 P0000 60001 T01170067 10139 20100 53004
KLVK - Livermore, California, USA
Distance from station: ΒΒΑ 51km
Ενημερώθηκε: 06/02/2023 01:53
Ασθενής βροχή, Συννεφιά
Ασθενής βροχή, Συννεφιά
 Ανεμος από Δ
Ανεμος: Δ 15 km/h
Θερμοκρασία: 9°C
Wind Chill: 7°C
Σημείο Δρόσου: 7°C
Υγρασία: 87%
Βαρόμετρο: 1024 hPa
Περίληψη: Ασθενής βροχή
Clouds: Συννεφιά
Visibility: 16 km
Cloud details: Few Clouds 671 m
Σχεδόν νεφελώδης 1494 m
Συννεφιά 2591 m
2023/02/05 23:53 KLVK 052353Z 28008KT 10SM -RA FEW022 BKN049 OVC085 09/07 A3024 RMK AO2 RAE05B35 SLP237 P0001 60006 T00940067 10133 20094 53005